createdAt,value
2018-08-20T00:01:49.702Z,24.82
2018-08-20T00:04:18.205Z,23.92
2018-08-20T00:06:57.966Z,25.68
2018-08-20T00:09:34.795Z,26.40
2018-08-20T00:12:03.789Z,25.20
2018-08-20T00:14:32.299Z,26.87
2018-08-20T00:17:01.343Z,25.90
2018-08-20T00:19:30.219Z,26.57
2018-08-20T00:21:58.782Z,25.88
2018-08-20T00:24:27.455Z,24.85
2018-08-20T00:26:59.138Z,27.85
2018-08-20T00:29:27.658Z,27.60
2018-08-20T00:31:56.114Z,27.58
2018-08-20T00:34:25.086Z,25.88
2018-08-20T00:36:53.537Z,25.02
2018-08-20T00:39:22.019Z,24.30
2018-08-20T00:41:50.509Z,26.10
2018-08-20T00:44:19.035Z,26.02
2018-08-20T00:46:47.554Z,26.97
2018-08-20T00:49:16.787Z,25.60
2018-08-20T00:51:45.645Z,26.30
2018-08-20T00:54:14.003Z,26.42
2018-08-20T00:56:42.566Z,24.35
2018-08-20T00:59:11.019Z,25.72
2018-08-20T01:01:39.510Z,25.60
2018-08-20T01:04:07.962Z,26.75
2018-08-20T01:06:36.472Z,26.23
2018-08-20T01:09:06.789Z,26.62
2018-08-20T01:11:35.241Z,24.77
2018-08-20T01:14:03.732Z,26.33
2018-08-20T01:16:32.331Z,27.07
2018-08-20T01:19:00.794Z,27.93
2018-08-20T01:21:29.309Z,26.17
2018-08-20T01:23:57.843Z,26.95
2018-08-20T01:26:26.348Z,25.10
2018-08-20T01:28:54.919Z,27.67
2018-08-20T01:31:23.497Z,26.87
2018-08-20T01:33:52.199Z,28.52
2018-08-20T01:36:20.849Z,28.60
2018-08-20T01:38:49.248Z,29.45
2018-08-20T01:41:17.886Z,29.80
2018-08-20T01:43:46.252Z,29.90
2018-08-20T01:46:14.682Z,27.58
2018-08-20T01:48:43.182Z,29.77
2018-08-20T01:51:11.738Z,27.98
2018-08-20T01:53:40.251Z,28.50
2018-08-20T01:56:09.134Z,30.65
2018-08-20T01:58:37.743Z,28.38
2018-08-20T02:01:06.811Z,30.92
2018-08-20T02:03:35.335Z,30.00
2018-08-20T02:06:03.802Z,30.05
2018-08-20T02:08:32.204Z,29.20
2018-08-20T02:11:00.614Z,29.20
2018-08-20T02:13:29.075Z,29.87
2018-08-20T02:15:57.603Z,30.15
2018-08-20T02:18:26.082Z,29.63
2018-08-20T02:20:54.608Z,28.83
2018-08-20T02:23:23.131Z,29.12
2018-08-20T02:25:51.622Z,29.95
2018-08-20T02:28:20.114Z,30.62
2018-08-20T02:30:48.602Z,30.08
2018-08-20T02:33:17.174Z,28.12
2018-08-20T02:35:45.559Z,27.62
2018-08-20T02:38:14.039Z,29.98
2018-08-20T02:40:42.560Z,27.98
2018-08-20T02:43:11.153Z,28.65
2018-08-20T02:45:40.571Z,28.15
2018-08-20T02:48:09.564Z,27.48
2018-08-20T02:50:38.143Z,29.23
2018-08-20T02:53:06.828Z,27.07
2018-08-20T02:55:35.240Z,28.73
2018-08-20T02:58:03.748Z,29.18
2018-08-20T03:00:32.838Z,28.87
2018-08-20T03:03:03.102Z,26.42
2018-08-20T03:05:32.079Z,27.50
2018-08-20T03:08:00.735Z,28.40
2018-08-20T03:10:29.341Z,27.02
2018-08-20T03:12:58.190Z,25.95
2018-08-20T03:15:27.142Z,28.40
2018-08-20T03:17:55.602Z,27.37
2018-08-20T03:20:24.055Z,30.12
2018-08-20T03:22:52.776Z,27.25
2018-08-20T03:25:21.352Z,28.45
2018-08-20T03:27:49.830Z,28.00
2018-08-20T03:30:19.037Z,28.20
2018-08-20T03:32:48.275Z,28.12
2018-08-20T03:35:16.702Z,30.30
2018-08-20T03:37:45.247Z,29.45
2018-08-20T03:40:13.753Z,27.20
2018-08-20T03:42:42.673Z,27.02
2018-08-20T03:45:11.432Z,25.97
2018-08-20T03:47:39.962Z,27.32
2018-08-20T03:50:10.812Z,27.42
2018-08-20T03:52:39.778Z,27.62
2018-08-20T03:55:09.190Z,25.92
2018-08-20T03:57:38.063Z,26.07
2018-08-20T04:00:07.932Z,26.68
2018-08-20T04:02:36.340Z,25.30
2018-08-20T04:05:05.366Z,26.87
2018-08-20T04:07:33.911Z,26.73
2018-08-20T04:10:02.532Z,27.70
2018-08-20T04:12:31.566Z,26.10
2018-08-20T04:15:00.040Z,25.77
2018-08-20T04:17:28.560Z,26.15
2018-08-20T04:19:57.110Z,28.05
2018-08-20T04:22:25.667Z,26.77
2018-08-20T04:24:54.604Z,27.13
2018-08-20T04:27:23.189Z,26.93
2018-08-20T04:29:51.584Z,28.12
2018-08-20T04:32:20.027Z,30.43
2018-08-20T04:34:48.686Z,28.52
2018-08-20T04:37:17.723Z,26.73
2018-08-20T04:39:46.243Z,26.50
2018-08-20T04:42:15.831Z,28.38
2018-08-20T04:44:44.191Z,30.23
2018-08-20T04:47:12.677Z,29.87
2018-08-20T04:49:41.136Z,29.85
2018-08-20T04:52:09.517Z,29.82
2018-08-20T04:54:37.912Z,29.07
2018-08-20T04:57:06.382Z,30.00
2018-08-20T04:59:35.035Z,28.30
2018-08-20T05:02:03.599Z,28.98
2018-08-20T05:04:32.047Z,29.37
2018-08-20T05:07:00.534Z,28.30
2018-08-20T05:09:29.175Z,30.75
2018-08-20T05:11:57.701Z,30.77
2018-08-20T05:14:26.089Z,29.80
2018-08-20T05:16:54.678Z,29.67
2018-08-20T05:19:23.716Z,29.15
2018-08-20T05:21:52.154Z,29.15
2018-08-20T05:24:20.511Z,30.92
2018-08-20T05:26:49.033Z,31.12
2018-08-20T05:29:17.592Z,30.15
2018-08-20T05:31:46.024Z,31.57
2018-08-20T05:34:14.722Z,30.95
2018-08-20T05:36:43.149Z,32.30
2018-08-20T05:39:12.299Z,30.57
2018-08-20T05:41:40.843Z,29.42
2018-08-20T05:44:09.267Z,30.77
2018-08-20T05:46:38.375Z,30.85
2018-08-20T05:49:06.860Z,29.77
2018-08-20T05:51:35.449Z,30.00
2018-08-20T05:54:03.936Z,30.43
2018-08-20T05:56:33.022Z,31.35
2018-08-20T05:59:01.474Z,30.62
2018-08-20T06:01:30.932Z,29.55
2018-08-20T06:03:59.802Z,31.48
2018-08-20T06:06:28.294Z,31.87
2018-08-20T06:08:56.852Z,31.12
2018-08-20T06:11:25.411Z,28.87
2018-08-20T06:13:53.931Z,28.45
2018-08-20T06:16:22.442Z,29.90
2018-08-20T06:18:50.826Z,28.23
2018-08-20T06:21:19.283Z,28.60
2018-08-20T06:23:47.781Z,31.55
2018-08-20T06:26:16.346Z,28.10
2018-08-20T06:28:44.928Z,30.05
2018-08-20T06:31:13.315Z,31.40
2018-08-20T06:33:41.896Z,32.40
2018-08-20T06:36:10.357Z,32.28
2018-08-20T06:38:38.984Z,32.85
2018-08-20T06:41:07.443Z,32.65
2018-08-20T06:43:36.037Z,31.80
2018-08-20T06:46:04.524Z,32.17
2018-08-20T06:48:33.079Z,29.90
2018-08-20T06:51:01.695Z,31.15
2018-08-20T06:53:30.124Z,30.70
2018-08-20T06:55:58.735Z,31.65
2018-08-20T06:58:27.247Z,33.90
2018-08-20T07:00:55.807Z,29.52
2018-08-20T07:03:24.434Z,30.70
2018-08-20T07:05:52.900Z,29.98
2018-08-20T07:08:21.339Z,34.30
2018-08-20T07:10:49.732Z,32.48
2018-08-20T07:13:32.870Z,31.48
2018-08-20T07:16:01.351Z,31.60
2018-08-20T07:18:29.971Z,32.63
2018-08-20T07:20:58.563Z,34.75
2018-08-20T07:23:27.646Z,34.13
2018-08-20T07:25:56.086Z,35.23
2018-08-20T07:28:24.706Z,34.13
2018-08-20T07:30:53.306Z,35.48
2018-08-20T07:33:21.859Z,34.03
2018-08-20T07:35:50.466Z,33.78
2018-08-20T07:38:18.972Z,37.40
2018-08-20T07:40:47.518Z,33.90
2018-08-20T07:43:15.971Z,35.78
2018-08-20T07:45:44.524Z,36.30
2018-08-20T07:48:13.183Z,34.67
2018-08-20T07:50:42.363Z,32.60
2018-08-20T07:53:10.898Z,33.90
2018-08-20T07:55:39.476Z,34.43
2018-08-20T07:58:08.924Z,32.38
2018-08-20T08:00:37.427Z,34.80
2018-08-20T08:03:06.018Z,33.02
2018-08-20T08:05:34.450Z,36.55
2018-08-20T08:08:03.176Z,34.90
2018-08-20T08:10:31.614Z,35.83
2018-08-20T08:13:00.214Z,33.18
2018-08-20T08:15:28.812Z,35.60
2018-08-20T08:17:57.263Z,36.42
2018-08-20T08:20:25.863Z,35.15
2018-08-20T08:22:54.889Z,35.35
2018-08-20T08:25:23.427Z,33.30
2018-08-20T08:27:51.821Z,33.33
2018-08-20T08:30:20.287Z,33.48
2018-08-20T08:32:48.863Z,33.95
2018-08-20T08:35:17.530Z,31.10
2018-08-20T08:37:46.163Z,32.10
2018-08-20T08:40:15.404Z,32.23
2018-08-20T08:42:45.122Z,33.65
2018-08-20T08:45:16.160Z,35.10
2018-08-20T08:47:45.444Z,37.17
2018-08-20T08:50:15.087Z,35.68
2018-08-20T08:52:45.112Z,34.40
2018-08-20T08:55:13.643Z,34.35
2018-08-20T08:57:42.164Z,33.40
2018-08-20T09:00:18.667Z,33.45
2018-08-20T09:02:47.358Z,33.23
2018-08-20T09:05:15.965Z,37.42
2018-08-20T09:07:44.804Z,36.68
2018-08-20T09:10:13.594Z,38.17
2018-08-20T09:12:42.147Z,33.95
2018-08-20T09:15:13.401Z,32.63
2018-08-20T09:17:42.148Z,30.32
2018-08-20T09:20:12.839Z,33.58
2018-08-20T09:22:41.646Z,31.62
2018-08-20T09:25:12.351Z,34.53
2018-08-20T09:27:41.472Z,34.18
2018-08-20T09:30:15.543Z,32.13
2018-08-20T09:32:44.709Z,31.33
2018-08-20T09:35:13.416Z,31.48
2018-08-20T09:37:42.174Z,31.57
2018-08-20T09:40:11.288Z,33.02
2018-08-20T09:42:40.988Z,34.90
2018-08-20T09:45:09.773Z,35.75
2018-08-20T09:47:39.495Z,36.75
2018-08-20T09:50:10.200Z,37.35
2018-08-20T09:52:38.667Z,33.40
2018-08-20T09:55:08.115Z,35.70
2018-08-20T09:57:36.706Z,36.63
2018-08-20T10:00:10.926Z,36.35
2018-08-20T10:02:39.379Z,33.80
2018-08-20T10:05:08.613Z,32.95
2018-08-20T10:07:37.624Z,35.80
2018-08-20T10:10:06.681Z,33.80
2018-08-20T10:12:35.155Z,37.03
2018-08-20T10:15:04.497Z,37.17
2018-08-20T10:17:33.051Z,38.45
2018-08-20T10:20:01.545Z,38.58
2018-08-20T10:22:30.177Z,36.83
2018-08-20T10:24:58.773Z,37.00
2018-08-20T10:27:28.013Z,37.50
2018-08-20T10:29:56.590Z,37.83
2018-08-20T10:32:25.112Z,39.58
2018-08-20T10:34:53.579Z,38.20
2018-08-20T10:37:22.059Z,36.03
2018-08-20T10:39:50.525Z,41.08
2018-08-20T10:42:19.053Z,36.50
2018-08-20T10:44:54.790Z,39.48
2018-08-20T10:47:23.337Z,34.75
2018-08-20T10:49:51.911Z,32.20
2018-08-20T10:52:20.508Z,33.50
2018-08-20T10:54:48.941Z,33.18
2018-08-20T10:57:17.388Z,34.60
2018-08-20T10:59:45.837Z,35.65
2018-08-20T11:02:14.373Z,35.45
2018-08-20T11:04:42.972Z,34.45
2018-08-20T11:07:12.184Z,34.88
2018-08-20T11:09:40.643Z,33.42
2018-08-20T11:12:09.359Z,33.65
2018-08-20T11:14:37.821Z,35.30
2018-08-20T11:17:06.447Z,35.38
2018-08-20T11:19:35.025Z,37.73
2018-08-20T11:22:03.519Z,35.95
2018-08-20T11:24:32.170Z,37.35
2018-08-20T11:27:00.742Z,34.48
2018-08-20T11:29:29.113Z,34.98
2018-08-20T11:31:57.532Z,32.78
2018-08-20T11:34:26.057Z,36.58
2018-08-20T11:36:54.438Z,35.98
2018-08-20T11:39:22.867Z,36.25
2018-08-20T11:41:51.321Z,34.80
2018-08-20T11:44:20.201Z,33.63
2018-08-20T11:46:48.746Z,32.75
2018-08-20T11:49:18.165Z,33.33
2018-08-20T11:51:46.777Z,33.50
2018-08-20T11:54:15.375Z,31.02
2018-08-20T11:56:43.809Z,33.65
2018-08-20T11:59:12.919Z,33.00
2018-08-20T12:01:41.313Z,31.10
2018-08-20T12:04:09.816Z,33.70
2018-08-20T12:06:38.260Z,32.30
2018-08-20T12:09:07.395Z,29.10
2018-08-20T12:11:35.936Z,30.88
2018-08-20T12:14:04.491Z,33.63
2018-08-20T12:16:33.027Z,32.50
2018-08-20T12:19:01.467Z,31.52
2018-08-20T12:21:29.904Z,31.27
2018-08-20T12:23:58.952Z,31.12
2018-08-20T12:26:27.626Z,32.83
2018-08-20T12:28:56.238Z,32.93
2018-08-20T12:31:24.772Z,32.70
2018-08-20T12:33:53.188Z,33.05
2018-08-20T12:36:21.678Z,30.12
2018-08-20T12:38:50.301Z,33.98
2018-08-20T12:41:19.433Z,33.18
2018-08-20T12:43:47.955Z,32.73
2018-08-20T12:46:18.936Z,35.13
2018-08-20T12:48:49.129Z,32.78
2018-08-20T12:51:17.980Z,33.70
2018-08-20T12:53:47.174Z,31.35
2018-08-20T12:56:15.728Z,31.17
2018-08-20T12:58:47.792Z,28.75
2018-08-20T13:01:16.327Z,33.40
2018-08-20T13:03:45.009Z,28.73
2018-08-20T13:06:13.604Z,28.23
2018-08-20T13:08:42.616Z,27.52
2018-08-20T13:11:11.103Z,34.15
2018-08-20T13:13:40.086Z,32.05
2018-08-20T13:16:08.838Z,32.58
2018-08-20T13:18:37.332Z,30.60
2018-08-20T13:21:06.220Z,29.85
2018-08-20T13:23:34.818Z,27.80
2018-08-20T13:26:03.959Z,27.80
2018-08-20T13:28:32.514Z,31.42
2018-08-20T13:31:00.996Z,29.80
2018-08-20T13:33:29.511Z,30.60
2018-08-20T13:35:59.007Z,31.17
2018-08-20T13:38:27.418Z,29.70
2018-08-20T13:40:55.891Z,29.92
2018-08-20T13:43:24.555Z,28.70
2018-08-20T13:45:53.020Z,27.02
2018-08-20T13:48:21.555Z,30.57
2018-08-20T13:50:50.257Z,27.40
2018-08-20T13:53:18.785Z,24.75
2018-08-20T13:55:47.247Z,26.10
2018-08-20T13:58:15.779Z,24.27
2018-08-20T14:00:44.295Z,24.35
2018-08-20T14:03:12.823Z,25.30
2018-08-20T14:05:41.383Z,23.57
2018-08-20T14:08:09.999Z,25.15
2018-08-20T14:10:38.511Z,23.15
2018-08-20T14:13:07.151Z,25.10
2018-08-20T14:15:35.758Z,25.72
2018-08-20T14:18:04.953Z,27.13
2018-08-20T14:20:33.363Z,24.23
2018-08-20T14:23:02.004Z,23.75
2018-08-20T14:25:30.395Z,23.87
2018-08-20T14:27:58.950Z,25.97
2018-08-20T14:30:27.498Z,22.48
2018-08-20T14:33:00.647Z,24.72
2018-08-20T14:35:30.038Z,24.70
2018-08-20T14:37:58.589Z,23.65
2018-08-20T14:40:27.049Z,24.43
2018-08-20T14:42:55.663Z,22.90
2018-08-20T14:45:24.149Z,23.70
2018-08-20T14:47:52.776Z,22.50
2018-08-20T14:50:21.299Z,23.95
2018-08-20T14:52:49.899Z,24.37
2018-08-20T14:55:18.453Z,24.63
2018-08-20T14:57:47.688Z,23.22
2018-08-20T15:00:16.150Z,24.80
2018-08-20T15:02:44.688Z,26.85
2018-08-20T15:05:13.194Z,27.25
2018-08-20T15:07:41.967Z,28.55
2018-08-20T15:10:11.165Z,27.73
2018-08-20T15:12:39.624Z,25.80
2018-08-20T15:15:09.190Z,24.50
2018-08-20T15:17:37.599Z,25.88
2018-08-20T15:20:07.391Z,24.80
2018-08-20T15:22:36.451Z,24.35
2018-08-20T15:25:05.428Z,24.45
2018-08-20T15:27:35.042Z,27.87
2018-08-20T15:30:03.737Z,24.43
2018-08-20T15:32:32.285Z,26.20
2018-08-20T15:35:00.751Z,27.52
2018-08-20T15:37:29.200Z,25.62
2018-08-20T15:39:57.852Z,26.57
2018-08-20T15:42:26.265Z,25.32
2018-08-20T15:44:54.750Z,24.30
2018-08-20T15:47:23.327Z,23.42
2018-08-20T15:49:52.539Z,23.60
2018-08-20T15:52:21.015Z,22.80
2018-08-20T15:54:49.444Z,23.80
2018-08-20T15:57:17.904Z,23.98
2018-08-20T15:59:46.482Z,23.02
2018-08-20T16:02:15.024Z,24.92
2018-08-20T16:04:43.389Z,23.50
2018-08-20T16:07:12.112Z,24.47
2018-08-20T16:09:40.523Z,22.87
2018-08-20T16:12:09.086Z,21.95
2018-08-20T16:14:37.639Z,22.32
2018-08-20T16:17:07.048Z,22.17
2018-08-20T16:19:35.470Z,21.52
2018-08-20T16:22:05.228Z,21.37
2018-08-20T16:24:33.758Z,21.55
2018-08-20T16:27:02.380Z,21.90
2018-08-20T16:29:30.904Z,20.97
2018-08-20T16:31:59.377Z,19.35
2018-08-20T16:34:27.936Z,20.17
2018-08-20T16:36:56.428Z,19.12
2018-08-20T16:39:25.008Z,20.02
2018-08-20T16:41:53.628Z,19.57
2018-08-20T16:44:22.057Z,18.95
2018-08-20T16:46:50.741Z,17.90
2018-08-20T16:49:19.408Z,17.80
2018-08-20T16:51:48.005Z,18.95
2018-08-20T16:54:16.421Z,17.67
2018-08-20T16:56:45.161Z,17.73
2018-08-20T16:59:13.691Z,18.52
2018-08-20T17:01:42.383Z,18.55
2018-08-20T17:04:27.433Z,17.73
2018-08-20T17:06:57.667Z,17.17
2018-08-20T17:09:26.350Z,17.98
2018-08-20T17:11:54.975Z,17.35
2018-08-20T17:14:23.488Z,17.42
2018-08-20T17:16:52.168Z,17.40
2018-08-20T17:19:21.014Z,17.80
2018-08-20T17:21:50.318Z,18.40
2018-08-20T17:24:28.144Z,17.87
2018-08-20T17:26:58.969Z,17.30
2018-08-20T17:29:27.720Z,17.10
2018-08-20T17:31:56.515Z,16.73
2018-08-20T17:34:25.845Z,16.50
2018-08-20T17:36:54.635Z,20.68
2018-08-20T17:39:23.945Z,21.05
2018-08-20T17:41:52.719Z,16.87
2018-08-20T17:44:23.273Z,18.98
2018-08-20T17:46:52.048Z,17.77
2018-08-20T17:49:25.924Z,18.10
2018-08-20T17:51:54.480Z,17.00
2018-08-20T17:54:23.055Z,17.12
2018-08-20T17:56:51.523Z,18.50
2018-08-20T17:59:22.993Z,16.00
2018-08-20T18:01:51.779Z,16.93
2018-08-20T18:04:20.443Z,17.20
2018-08-20T18:06:52.553Z,17.32
2018-08-20T18:09:21.752Z,16.02
2018-08-20T18:11:55.109Z,18.70
2018-08-20T18:14:25.658Z,19.20
2018-08-20T18:16:54.089Z,17.15
2018-08-20T18:19:23.312Z,16.52
2018-08-20T18:21:51.999Z,17.27
2018-08-20T18:24:21.771Z,17.52
2018-08-20T18:26:54.409Z,17.27
2018-08-20T18:29:23.121Z,16.45
2018-08-20T18:31:55.152Z,16.97
2018-08-20T18:34:24.152Z,16.85
2018-08-20T18:36:52.876Z,18.07
2018-08-20T18:39:23.151Z,16.15
2018-08-20T18:41:52.354Z,16.60
2018-08-20T18:44:23.191Z,17.50
2018-08-20T18:46:52.727Z,16.70
2018-08-20T18:49:22.170Z,17.02
2018-08-20T18:52:13.439Z,18.00
2018-08-20T18:54:48.435Z,17.82
2018-08-20T18:57:19.274Z,16.82
2018-08-20T18:59:47.974Z,16.77
2018-08-20T19:02:52.290Z,17.32
2018-08-20T19:05:21.507Z,16.75
2018-08-20T19:07:50.192Z,17.75
2018-08-20T19:10:26.895Z,18.48
2018-08-20T19:12:55.456Z,17.27
2018-08-20T19:15:45.025Z,17.17
2018-08-20T19:18:17.836Z,17.12
2018-08-20T19:20:46.375Z,16.60
2018-08-20T19:23:15.060Z,18.82
2018-08-20T19:25:43.632Z,17.30
2018-08-20T19:28:17.005Z,18.98
2018-08-20T19:30:45.589Z,17.95
2018-08-20T19:33:21.571Z,19.32
2018-08-20T19:35:50.186Z,18.45
2018-08-20T19:38:19.847Z,18.23
2018-08-20T19:40:58.038Z,17.77
2018-08-20T19:43:29.046Z,17.30
2018-08-20T19:45:57.671Z,18.30
2018-08-20T19:48:26.308Z,17.40
2018-08-20T19:50:54.856Z,17.57
2018-08-20T19:53:24.082Z,17.45
2018-08-20T19:55:53.329Z,17.98
2018-08-20T19:58:31.093Z,17.85
2018-08-20T20:01:11.298Z,19.07
2018-08-20T20:03:43.218Z,18.07
2018-08-20T20:06:11.998Z,17.25
2018-08-20T20:08:41.918Z,17.40
2018-08-20T20:11:17.435Z,18.73
2018-08-20T20:13:46.741Z,18.80
2018-08-20T20:16:15.343Z,20.92
2018-08-20T20:18:44.008Z,19.23
2018-08-20T20:21:13.014Z,19.05
2018-08-20T20:23:41.651Z,17.60
2018-08-20T20:26:10.398Z,18.10
2018-08-20T20:28:38.980Z,18.60
2018-08-20T20:31:08.082Z,18.30
2018-08-20T20:33:36.854Z,18.35
2018-08-20T20:36:11.442Z,17.17
2018-08-20T20:38:39.975Z,17.62
2018-08-20T20:41:08.496Z,17.55
2018-08-20T20:43:38.016Z,18.82
2018-08-20T20:46:08.679Z,17.40
2018-08-20T20:48:37.628Z,17.70
2018-08-20T20:51:06.576Z,18.35
2018-08-20T20:53:35.211Z,17.75
2018-08-20T20:56:03.754Z,18.30
2018-08-20T20:58:35.528Z,17.95
2018-08-20T21:01:05.778Z,17.95
2018-08-20T21:03:34.943Z,18.15
2018-08-20T21:06:04.251Z,17.50
2018-08-20T21:08:39.626Z,17.10
2018-08-20T21:11:09.088Z,18.87
2018-08-20T21:13:37.872Z,17.55
2018-08-20T21:16:09.643Z,17.95
2018-08-20T21:18:42.954Z,19.05
2018-08-20T21:21:11.507Z,17.87
2018-08-20T21:23:41.092Z,18.95
2018-08-20T21:26:10.353Z,17.92
2018-08-20T21:28:43.946Z,18.42
2018-08-20T21:31:13.505Z,17.65
2018-08-20T21:33:42.731Z,17.10
2018-08-20T21:36:12.093Z,19.02
2018-08-20T21:38:40.709Z,17.77
2018-08-20T21:41:09.163Z,17.52
2018-08-20T21:43:45.397Z,19.10
2018-08-20T21:46:14.196Z,18.23
2018-08-20T21:48:43.113Z,17.82
2018-08-20T21:51:28.669Z,17.30
2018-08-20T21:53:57.560Z,18.35
2018-08-20T21:56:34.664Z,18.87
2018-08-20T21:59:03.232Z,17.75
2018-08-20T22:01:31.765Z,18.37
2018-08-20T22:04:00.625Z,17.98
2018-08-20T22:06:29.174Z,18.05
2018-08-20T22:08:57.644Z,19.00
2018-08-20T22:11:26.059Z,18.10
2018-08-20T22:13:54.592Z,17.10
2018-08-20T22:16:24.289Z,18.98
2018-08-20T22:18:57.207Z,17.80
2018-08-20T22:21:26.027Z,18.92
2018-08-20T22:23:58.467Z,16.60
2018-08-20T22:26:27.081Z,19.55
2018-08-20T22:28:55.663Z,18.00
2018-08-20T22:31:24.221Z,19.17
2018-08-20T22:33:58.715Z,17.75
2018-08-20T22:36:28.474Z,18.48
2018-08-20T22:38:59.071Z,18.73
2018-08-20T22:41:28.731Z,17.50
2018-08-20T22:43:57.279Z,18.07
2018-08-20T22:46:26.208Z,18.85
2018-08-20T22:48:57.009Z,18.55
2018-08-20T22:51:26.526Z,18.92
2018-08-20T22:53:56.256Z,17.92
2018-08-20T22:56:29.194Z,19.75
2018-08-20T22:59:02.130Z,18.15
2018-08-20T23:01:30.705Z,17.87
2018-08-20T23:03:59.158Z,17.82
2018-08-20T23:06:27.658Z,17.30
2018-08-20T23:08:56.324Z,19.12
2018-08-20T23:11:38.898Z,17.40
2018-08-20T23:14:08.936Z,19.15
2018-08-20T23:16:37.648Z,18.90
2018-08-20T23:19:06.179Z,17.85
2018-08-20T23:21:38.749Z,19.07
2018-08-20T23:24:07.588Z,19.92
2018-08-20T23:26:36.428Z,19.42
2018-08-20T23:29:04.909Z,20.45
2018-08-20T23:31:33.535Z,18.60
2018-08-20T23:34:01.925Z,18.50
2018-08-20T23:36:30.383Z,18.37
2018-08-20T23:38:58.854Z,19.10
2018-08-20T23:41:27.414Z,18.52
2018-08-20T23:44:00.209Z,18.75
2018-08-20T23:46:34.467Z,18.30
2018-08-20T23:49:03.606Z,18.82
2018-08-20T23:51:32.182Z,18.80
2018-08-20T23:54:00.620Z,17.95
2018-08-20T23:56:29.110Z,18.87
2018-08-20T23:58:57.725Z,17.77
